sensor_id;sensor_type;location;lat;lon;timestamp;temperature;humidity
949;DHT22;461;51.436;7.312;2023-12-20T01:41:53;8.90;99.90
949;DHT22;461;51.436;7.312;2023-12-20T02:07:58;8.90;99.90
949;DHT22;461;51.436;7.312;2023-12-20T02:10:48;8.60;99.90
949;DHT22;461;51.436;7.312;2023-12-20T02:16:39;8.50;99.90
949;DHT22;461;51.436;7.312;2023-12-20T02:22:29;8.60;99.90
949;DHT22;461;51.436;7.312;2023-12-20T02:25:17;8.50;99.90
949;DHT22;461;51.436;7.312;2023-12-20T02:28:00;8.50;99.90
949;DHT22;461;51.436;7.312;2023-12-20T02:30:31;8.60;99.90
949;DHT22;461;51.436;7.312;2023-12-20T02:33:18;8.50;99.90
949;DHT22;461;51.436;7.312;2023-12-20T02:35:51;8.60;99.90
949;DHT22;461;51.436;7.312;2023-12-20T02:41:34;8.70;99.90
949;DHT22;461;51.436;7.312;2023-12-20T02:46:33;8.80;99.90
949;DHT22;461;51.436;7.312;2023-12-20T02:49:07;9.00;99.90
949;DHT22;461;51.436;7.312;2023-12-20T02:51:35;8.90;99.90
949;DHT22;461;51.436;7.312;2023-12-20T02:54:10;8.90;99.90
949;DHT22;461;51.436;7.312;2023-12-20T02:56:40;9.00;99.90
949;DHT22;461;51.436;7.312;2023-12-20T02:59:10;9.10;99.90
949;DHT22;461;51.436;7.312;2023-12-20T03:01:45;9.10;99.90
949;DHT22;461;51.436;7.312;2023-12-20T03:04:17;9.10;99.90
949;DHT22;461;51.436;7.312;2023-12-20T03:06:56;9.10;99.90
949;DHT22;461;51.436;7.312;2023-12-20T03:09:30;8.90;99.90
949;DHT22;461;51.436;7.312;2023-12-20T03:12:10;9.00;99.90
949;DHT22;461;51.436;7.312;2023-12-20T03:14:51;8.90;99.90
949;DHT22;461;51.436;7.312;2023-12-20T03:17:46;8.80;99.90
949;DHT22;461;51.436;7.312;2023-12-20T03:23:17;8.70;99.90
949;DHT22;461;51.436;7.312;2023-12-20T03:26:05;8.70;99.90
949;DHT22;461;51.436;7.312;2023-12-20T03:34:39;8.40;99.90
949;DHT22;461;51.436;7.312;2023-12-20T03:37:32;8.30;99.90
949;DHT22;461;51.436;7.312;2023-12-20T03:40:05;8.30;99.90
949;DHT22;461;51.436;7.312;2023-12-20T03:42:42;8.20;99.90
949;DHT22;461;51.436;7.312;2023-12-20T03:47:55;8.30;99.90
949;DHT22;461;51.436;7.312;2023-12-20T03:50:28;8.30;99.90
949;DHT22;461;51.436;7.312;2023-12-20T03:52:58;8.40;99.90
949;DHT22;461;51.436;7.312;2023-12-20T03:55:36;8.40;99.90
949;DHT22;461;51.436;7.312;2023-12-20T03:58:10;8.50;99.90
949;DHT22;461;51.436;7.312;2023-12-20T04:01:01;8.60;99.90
949;DHT22;461;51.436;7.312;2023-12-20T04:04:13;8.60;99.90
949;DHT22;461;51.436;7.312;2023-12-20T04:06:51;8.50;99.90
949;DHT22;461;51.436;7.312;2023-12-20T04:09:21;8.60;99.90
949;DHT22;461;51.436;7.312;2023-12-20T04:11:53;8.60;99.90
949;DHT22;461;51.436;7.312;2023-12-20T04:14:28;8.60;99.90
949;DHT22;461;51.436;7.312;2023-12-20T04:17:03;8.50;99.90
949;DHT22;461;51.436;7.312;2023-12-20T04:19:41;8.50;99.90
949;DHT22;461;51.436;7.312;2023-12-20T04:22:21;8.50;99.90
949;DHT22;461;51.436;7.312;2023-12-20T04:25:02;8.40;99.90
949;DHT22;461;51.436;7.312;2023-12-20T04:27:41;8.30;99.90
949;DHT22;461;51.436;7.312;2023-12-20T04:30:14;8.20;99.90
949;DHT22;461;51.436;7.312;2023-12-20T04:32:46;8.30;99.90
949;DHT22;461;51.436;7.312;2023-12-20T04:35:13;8.40;99.90
949;DHT22;461;51.436;7.312;2023-12-20T04:37:45;8.50;99.90
949;DHT22;461;51.436;7.312;2023-12-20T04:40:15;8.60;99.90
949;DHT22;461;51.436;7.312;2023-12-20T04:42:41;8.60;99.90
949;DHT22;461;51.436;7.312;2023-12-20T04:45:10;8.60;99.90
949;DHT22;461;51.436;7.312;2023-12-20T04:47:38;8.50;99.90
949;DHT22;461;51.436;7.312;2023-12-20T04:50:10;8.40;99.90
949;DHT22;461;51.436;7.312;2023-12-20T04:52:41;8.40;99.90
949;DHT22;461;51.436;7.312;2023-12-20T04:55:11;8.40;99.90
949;DHT22;461;51.436;7.312;2023-12-20T04:57:37;8.30;99.90
949;DHT22;461;51.436;7.312;2023-12-20T05:00:03;8.20;99.90
949;DHT22;461;51.436;7.312;2023-12-20T05:02:35;8.30;99.90
949;DHT22;461;51.436;7.312;2023-12-20T05:05:05;8.30;99.90
949;DHT22;461;51.436;7.312;2023-12-20T05:07:36;8.40;99.90
949;DHT22;461;51.436;7.312;2023-12-20T05:10:17;8.40;99.90
949;DHT22;461;51.436;7.312;2023-12-20T05:13:07;8.50;99.90
949;DHT22;461;51.436;7.312;2023-12-20T05:15:36;8.40;99.90
949;DHT22;461;51.436;7.312;2023-12-20T05:18:09;8.40;99.90
949;DHT22;461;51.436;7.312;2023-12-20T05:25:47;8.40;99.90
949;DHT22;461;51.436;7.312;2023-12-20T05:28:19;8.60;99.90
949;DHT22;461;51.436;7.312;2023-12-20T05:30:58;8.70;99.90
949;DHT22;461;51.436;7.312;2023-12-20T05:41:08;8.80;99.90
949;DHT22;461;51.436;7.312;2023-12-20T05:43:35;8.60;99.90
949;DHT22;461;51.436;7.312;2023-12-20T05:46:07;8.70;99.90
949;DHT22;461;51.436;7.312;2023-12-20T05:48:35;8.70;99.90
949;DHT22;461;51.436;7.312;2023-12-20T05:51:01;8.60;99.90
949;DHT22;461;51.436;7.312;2023-12-20T05:53:35;8.50;99.90
949;DHT22;461;51.436;7.312;2023-12-20T05:56:01;8.50;99.90
949;DHT22;461;51.436;7.312;2023-12-20T06:00:57;8.50;99.90
949;DHT22;461;51.436;7.312;2023-12-20T06:03:30;8.30;99.90
949;DHT22;461;51.436;7.312;2023-12-20T06:06:08;8.40;99.90
949;DHT22;461;51.436;7.312;2023-12-20T06:08:36;8.40;99.90
949;DHT22;461;51.436;7.312;2023-12-20T06:11:09;8.30;99.90
949;DHT22;461;51.436;7.312;2023-12-20T06:13:41;8.40;99.90
949;DHT22;461;51.436;7.312;2023-12-20T06:28:25;8.50;99.90
949;DHT22;461;51.436;7.312;2023-12-20T11:28:06;9.10;99.90
949;DHT22;461;51.436;7.312;2023-12-20T11:30:46;9.10;99.90
949;DHT22;461;51.436;7.312;2023-12-20T11:33:14;8.90;99.90
949;DHT22;461;51.436;7.312;2023-12-20T19:40:00;9.80;99.90
949;DHT22;461;51.436;7.312;2023-12-20T19:42:28;9.90;99.90
949;DHT22;461;51.436;7.312;2023-12-20T19:47:22;9.90;99.90
949;DHT22;461;51.436;7.312;2023-12-20T19:49:48;10.00;99.90
949;DHT22;461;51.436;7.312;2023-12-20T19:52:14;9.90;99.90
949;DHT22;461;51.436;7.312;2023-12-20T19:54:40;9.70;99.90
949;DHT22;461;51.436;7.312;2023-12-20T19:57:06;9.60;99.90
949;DHT22;461;51.436;7.312;2023-12-20T19:59:31;9.50;99.90
949;DHT22;461;51.436;7.312;2023-12-20T20:01:57;9.70;99.90
949;DHT22;461;51.436;7.312;2023-12-20T20:04:25;9.70;99.90
949;DHT22;461;51.436;7.312;2023-12-20T20:06:51;9.80;99.90
949;DHT22;461;51.436;7.312;2023-12-20T20:09:18;9.80;99.90
949;DHT22;461;51.436;7.312;2023-12-20T20:11:44;9.90;99.90
949;DHT22;461;51.436;7.312;2023-12-20T20:14:09;9.90;99.90
949;DHT22;461;51.436;7.312;2023-12-20T20:16:35;9.80;99.90
949;DHT22;461;51.436;7.312;2023-12-20T20:19:01;9.80;99.90
949;DHT22;461;51.436;7.312;2023-12-20T20:21:27;9.80;99.90
949;DHT22;461;51.436;7.312;2023-12-20T20:23:52;9.90;99.90
949;DHT22;461;51.436;7.312;2023-12-20T20:26:18;9.80;99.90
949;DHT22;461;51.436;7.312;2023-12-20T20:28:44;9.80;99.90
949;DHT22;461;51.436;7.312;2023-12-20T20:31:12;9.80;99.90
949;DHT22;461;51.436;7.312;2023-12-20T20:38:32;9.70;99.90
949;DHT22;461;51.436;7.312;2023-12-20T20:45:50;9.50;99.90
949;DHT22;461;51.436;7.312;2023-12-20T23:02:22;9.70;99.90
949;DHT22;461;51.436;7.312;2023-12-20T23:12:06;9.70;99.90
949;DHT22;461;51.436;7.312;2023-12-20T23:14:32;9.80;99.90
949;DHT22;461;51.436;7.312;2023-12-20T23:16:57;9.80;99.90
949;DHT22;461;51.436;7.312;2023-12-20T23:19:23;9.80;99.90
949;DHT22;461;51.436;7.312;2023-12-20T23:21:49;9.80;99.90
949;DHT22;461;51.436;7.312;2023-12-20T23:24:15;9.80;99.90
949;DHT22;461;51.436;7.312;2023-12-20T23:26:41;9.80;99.90
949;DHT22;461;51.436;7.312;2023-12-20T23:29:08;9.90;99.90
949;DHT22;461;51.436;7.312;2023-12-20T23:31:34;9.70;99.90
949;DHT22;461;51.436;7.312;2023-12-20T23:33:59;9.80;99.90
949;DHT22;461;51.436;7.312;2023-12-20T23:36:25;9.80;99.90
949;DHT22;461;51.436;7.312;2023-12-20T23:38:51;9.90;99.90
949;DHT22;461;51.436;7.312;2023-12-20T23:41:17;10.00;99.90
949;DHT22;461;51.436;7.312;2023-12-20T23:43:42;10.00;99.90
949;DHT22;461;51.436;7.312;2023-12-20T23:46:08;10.00;99.90
949;DHT22;461;51.436;7.312;2023-12-20T23:48:34;10.10;99.90
949;DHT22;461;51.436;7.312;2023-12-20T23:51:01;10.10;99.90
949;DHT22;461;51.436;7.312;2023-12-20T23:58:19;10.10;99.90
